createdAt,value
2022-12-08T00:01:35.106Z,101141.86
2022-12-08T00:04:04.546Z,101139.32
2022-12-08T00:06:54.077Z,101133.67
2022-12-08T00:09:37.918Z,101132.59
2022-12-08T00:12:08.152Z,101137.66
2022-12-08T00:14:44.038Z,101139.94
2022-12-08T00:17:14.325Z,101145.71
2022-12-08T00:19:43.284Z,101148.38
2022-12-08T00:22:12.384Z,101146.34
2022-12-08T00:24:41.459Z,101141.02
2022-12-08T00:27:10.671Z,101139.02
2022-12-08T00:29:39.022Z,101140.70
2022-12-08T00:32:07.553Z,101145.05
2022-12-08T00:34:35.959Z,101151.08
2022-12-08T00:37:05.059Z,101152.48
2022-12-08T00:39:33.271Z,101154.66
2022-12-08T00:42:13.553Z,101155.06
2022-12-08T00:44:43.882Z,101155.23
2022-12-08T00:47:13.155Z,101155.95
2022-12-08T00:49:41.883Z,101154.20
2022-12-08T00:52:10.145Z,101149.39
2022-12-08T00:54:38.369Z,101149.93
2022-12-08T00:57:06.607Z,101149.40
2022-12-08T00:59:34.885Z,101147.39
2022-12-08T01:02:03.154Z,101146.81
2022-12-08T01:04:31.386Z,101148.80
2022-12-08T01:06:59.618Z,101148.59
2022-12-08T01:09:27.766Z,101143.55
2022-12-08T01:11:56.353Z,101141.98
2022-12-08T01:14:24.553Z,101142.11
2022-12-08T01:16:53.219Z,101139.91
2022-12-08T01:19:21.498Z,101131.90
2022-12-08T01:21:49.715Z,101126.41
2022-12-08T01:24:19.968Z,101125.46
2022-12-08T01:26:49.776Z,101122.64
2022-12-08T01:29:18.265Z,101119.59
2022-12-08T01:31:46.594Z,101117.48
2022-12-08T01:34:14.828Z,101116.20
2022-12-08T01:36:44.629Z,101121.73
2022-12-08T01:39:18.227Z,101112.72
2022-12-08T01:41:47.845Z,101113.97
2022-12-08T01:44:15.963Z,101122.10
2022-12-08T01:46:46.155Z,101128.90
2022-12-08T01:49:22.881Z,101128.63
2022-12-08T01:51:57.174Z,101129.68
2022-12-08T01:54:29.825Z,101129.32
2022-12-08T01:57:15.394Z,101128.23
2022-12-08T01:59:49.169Z,101121.03
2022-12-08T02:02:17.459Z,101114.15
2022-12-08T02:04:45.786Z,101107.79
2022-12-08T02:07:14.989Z,101108.63
2022-12-08T02:09:43.325Z,101114.83
2022-12-08T02:12:11.971Z,101125.11
2022-12-08T02:14:40.324Z,101129.97
2022-12-08T02:17:17.670Z,101127.66
2022-12-08T02:20:09.686Z,101128.06
2022-12-08T02:22:52.995Z,101127.09
2022-12-08T02:25:33.456Z,101127.19
2022-12-08T02:28:36.785Z,101132.84
2022-12-08T02:31:30.728Z,101132.27
2022-12-08T02:34:26.721Z,101128.73
2022-12-08T02:37:13.016Z,101124.39
2022-12-08T02:39:59.855Z,101129.27
2022-12-08T02:42:33.261Z,101138.38
2022-12-08T02:45:15.529Z,101147.39
2022-12-08T02:47:44.573Z,101146.76
2022-12-08T02:50:13.081Z,101136.41
2022-12-08T02:52:46.115Z,101134.92
2022-12-08T02:55:26.143Z,101135.59
2022-12-08T02:58:01.054Z,101134.48
2022-12-08T03:00:39.044Z,101137.88
2022-12-08T03:03:42.292Z,101138.24
2022-12-08T03:06:47.239Z,101134.37
2022-12-08T03:09:39.096Z,101129.58
2022-12-08T03:12:07.274Z,101132.81
2022-12-08T03:14:37.528Z,101134.20
2022-12-08T03:17:06.080Z,101126.36
2022-12-08T03:19:39.763Z,101120.14
2022-12-08T03:22:09.526Z,101115.45
2022-12-08T03:24:40.227Z,101117.16
2022-12-08T03:27:10.112Z,101118.02
2022-12-08T03:29:38.433Z,101119.69
2022-12-08T03:32:18.730Z,101128.08
2022-12-08T03:34:48.783Z,101125.92
2022-12-08T03:37:17.515Z,101124.77
2022-12-08T03:39:45.752Z,101122.83
2022-12-08T03:42:13.944Z,101129.35
2022-12-08T03:44:42.105Z,101134.86
2022-12-08T03:47:10.317Z,101137.20
2022-12-08T03:49:38.482Z,101137.96
2022-12-08T03:52:06.664Z,101135.21
2022-12-08T03:54:34.841Z,101135.20
2022-12-08T03:57:02.967Z,101136.44
2022-12-08T03:59:31.107Z,101135.09
2022-12-08T04:01:59.360Z,101137.95
2022-12-08T04:04:27.526Z,101145.77
2022-12-08T04:06:55.600Z,101154.71
2022-12-08T04:09:23.926Z,101161.07
2022-12-08T04:11:52.110Z,101157.76
2022-12-08T04:14:20.498Z,101156.86
2022-12-08T04:16:48.646Z,101156.22
2022-12-08T04:19:16.841Z,101156.48
2022-12-08T04:21:45.038Z,101156.08
2022-12-08T04:24:13.344Z,101159.92
2022-12-08T04:26:41.515Z,101157.49
2022-12-08T04:29:09.665Z,101150.98
2022-12-08T04:31:37.975Z,101155.38
2022-12-08T04:34:06.183Z,101157.92
2022-12-08T04:36:34.356Z,101165.41
2022-12-08T04:39:02.566Z,101173.96
2022-12-08T04:41:30.717Z,101167.20
2022-12-08T04:43:58.904Z,101163.09
2022-12-08T04:46:27.089Z,101163.34
2022-12-08T04:48:55.243Z,101160.38
2022-12-08T04:51:23.436Z,101160.80
2022-12-08T04:53:51.607Z,101155.33
2022-12-08T04:56:20.054Z,101157.15
2022-12-08T04:58:48.189Z,101161.98
2022-12-08T05:01:16.528Z,101163.02
2022-12-08T05:03:44.708Z,101171.98
2022-12-08T05:06:14.290Z,101169.91
2022-12-08T05:08:43.365Z,101168.52
2022-12-08T05:11:13.193Z,101172.86
2022-12-08T05:13:41.393Z,101184.57
2022-12-08T05:16:12.063Z,101190.14
2022-12-08T05:18:41.107Z,101201.02
2022-12-08T05:21:10.096Z,101207.59
2022-12-08T05:23:38.497Z,101208.58
2022-12-08T05:26:06.764Z,101206.58
2022-12-08T05:28:43.251Z,101201.34
2022-12-08T05:31:14.005Z,101199.88
2022-12-08T05:33:43.306Z,101192.92
2022-12-08T05:36:15.583Z,101191.36
2022-12-08T05:38:44.589Z,101185.55
2022-12-08T05:41:20.530Z,101185.27
2022-12-08T05:43:49.109Z,101187.23
2022-12-08T05:46:17.605Z,101195.36
2022-12-08T05:48:45.861Z,101205.94
2022-12-08T05:51:22.498Z,101205.71
2022-12-08T05:53:51.831Z,101210.23
2022-12-08T05:56:20.986Z,101218.14
2022-12-08T05:58:49.614Z,101216.09
2022-12-08T06:01:38.205Z,101224.91
2022-12-08T06:04:06.446Z,101236.09
2022-12-08T06:06:35.394Z,101244.09
2022-12-08T06:09:04.829Z,101248.64
2022-12-08T06:11:33.786Z,101246.84
2022-12-08T06:14:02.371Z,101248.64
2022-12-08T06:16:30.850Z,101250.67
2022-12-08T06:18:59.154Z,101249.10
2022-12-08T06:21:27.302Z,101254.58
2022-12-08T06:23:55.725Z,101253.41
2022-12-08T06:26:23.983Z,101251.13
2022-12-08T06:28:52.551Z,101250.42
2022-12-08T06:31:23.407Z,101255.15
2022-12-08T06:33:52.295Z,101255.05
2022-12-08T06:36:23.499Z,101254.55
2022-12-08T06:38:51.825Z,101255.25
2022-12-08T06:41:19.994Z,101254.40
2022-12-08T06:43:48.365Z,101257.17
2022-12-08T06:46:19.490Z,101259.67
2022-12-08T06:48:48.017Z,101259.36
2022-12-08T06:51:18.825Z,101257.68
2022-12-08T06:53:47.680Z,101254.89
2022-12-08T06:56:16.764Z,101256.42
2022-12-08T06:58:50.439Z,101256.45
2022-12-08T07:01:20.737Z,101251.59
2022-12-08T07:03:49.107Z,101258.23
2022-12-08T07:06:21.158Z,101260.05
2022-12-08T07:08:49.455Z,101256.72
2022-12-08T07:11:21.894Z,101259.46
2022-12-08T07:13:51.227Z,101264.11
2022-12-08T07:16:19.532Z,101269.08
2022-12-08T07:18:47.688Z,101265.26
2022-12-08T07:21:17.126Z,101260.70
2022-12-08T07:23:54.294Z,101274.61
2022-12-08T07:26:27.014Z,101278.83
2022-12-08T07:28:55.221Z,101278.27
2022-12-08T07:31:25.690Z,101277.92
2022-12-08T07:33:54.310Z,101275.57
2022-12-08T07:36:22.669Z,101276.17
2022-12-08T07:38:51.162Z,101275.48
2022-12-08T07:41:23.499Z,101268.77
2022-12-08T07:43:53.969Z,101262.51
2022-12-08T07:46:23.759Z,101258.46
2022-12-08T07:48:53.284Z,101259.89
2022-12-08T07:51:21.860Z,101254.08
2022-12-08T07:53:54.147Z,101262.67
2022-12-08T07:56:23.437Z,101267.80
2022-12-08T07:58:51.752Z,101273.36
2022-12-08T08:01:26.439Z,101282.11
2022-12-08T08:03:56.883Z,101282.58
2022-12-08T08:06:25.093Z,101283.82
2022-12-08T08:08:53.370Z,101282.66
2022-12-08T08:11:22.042Z,101277.79
2022-12-08T08:13:51.334Z,101273.67
2022-12-08T08:16:20.315Z,101284.79
2022-12-08T08:18:52.051Z,101296.30
2022-12-08T08:24:09.380Z,101309.89
2022-12-08T08:26:38.057Z,101307.16
2022-12-08T08:29:06.194Z,101310.15
2022-12-08T08:31:34.517Z,101320.02
2022-12-08T08:34:06.622Z,101325.36
2022-12-08T08:36:35.005Z,101325.21
2022-12-08T08:39:04.376Z,101327.03
2022-12-08T08:41:33.079Z,101324.08
2022-12-08T08:44:01.319Z,101312.45
2022-12-08T08:46:29.664Z,101302.59
2022-12-08T08:48:58.336Z,101294.97
2022-12-08T08:51:26.841Z,101295.67
2022-12-08T08:53:55.042Z,101298.83
2022-12-08T08:56:23.312Z,101298.52
2022-12-08T08:58:53.279Z,101298.16
2022-12-08T09:01:25.709Z,101294.89
2022-12-08T09:03:54.105Z,101288.94
2022-12-08T09:06:22.886Z,101285.84
2022-12-08T09:08:51.298Z,101282.80
2022-12-08T09:11:19.499Z,101280.18
2022-12-08T09:13:49.633Z,101278.64
2022-12-08T09:16:18.702Z,101276.29
2022-12-08T09:18:49.527Z,101273.55
2022-12-08T09:21:23.040Z,101272.64
2022-12-08T09:23:53.274Z,101264.88
2022-12-08T09:26:22.717Z,101260.58
2022-12-08T09:28:52.190Z,101260.63
2022-12-08T09:31:21.620Z,101266.90
2022-12-08T09:33:53.556Z,101266.79
2022-12-08T09:36:21.983Z,101262.36
2022-12-08T09:38:51.281Z,101259.59
2022-12-08T09:41:44.807Z,101261.58
2022-12-08T09:44:46.723Z,101267.45
2022-12-08T09:47:37.446Z,101262.80
2022-12-08T09:50:18.039Z,101254.48
2022-12-08T09:53:10.873Z,101251.16
2022-12-08T09:55:46.803Z,101247.50
2022-12-08T09:58:25.053Z,101247.73
2022-12-08T10:00:53.205Z,101248.24
2022-12-08T10:03:25.659Z,101240.66
2022-12-08T10:06:08.134Z,101234.11
2022-12-08T10:09:02.126Z,101234.41
2022-12-08T10:11:44.665Z,101231.30
2022-12-08T10:14:27.716Z,101229.35
2022-12-08T10:17:05.271Z,101233.17
2022-12-08T10:19:34.840Z,101232.45
2022-12-08T10:22:12.608Z,101229.74
2022-12-08T10:24:54.999Z,101231.39
2022-12-08T10:27:23.929Z,101225.07
2022-12-08T10:29:52.207Z,101218.42
2022-12-08T10:32:23.339Z,101221.48
2022-12-08T10:35:06.473Z,101218.04
2022-12-08T10:37:34.837Z,101211.66
2022-12-08T10:40:19.037Z,101210.79
2022-12-08T10:42:54.382Z,101214.05
2022-12-08T10:45:23.327Z,101221.35
2022-12-08T10:48:04.165Z,101220.36
2022-12-08T10:50:35.759Z,101216.25
2022-12-08T10:53:10.113Z,101205.35
2022-12-08T10:55:47.521Z,101197.33
2022-12-08T10:58:37.145Z,101194.89
2022-12-08T11:01:15.235Z,101189.81
2022-12-08T11:03:46.432Z,101195.15
2022-12-08T11:06:22.496Z,101196.14
2022-12-08T11:08:54.750Z,101199.34
2022-12-08T11:11:46.139Z,101188.98
2022-12-08T11:14:22.970Z,101186.99
2022-12-08T11:16:53.935Z,101188.52
2022-12-08T11:19:27.762Z,101182.37
2022-12-08T11:21:55.949Z,101175.36
2022-12-08T11:24:28.620Z,101175.50
2022-12-08T11:27:04.301Z,101179.29
2022-12-08T11:29:34.440Z,101178.20
2022-12-08T11:32:12.326Z,101174.86
2022-12-08T11:34:47.021Z,101169.84
2022-12-08T11:37:25.250Z,101169.98
2022-12-08T11:39:57.249Z,101172.73
2022-12-08T11:42:32.400Z,101169.14
2022-12-08T11:45:06.900Z,101152.52
2022-12-08T11:47:45.583Z,101143.73
2022-12-08T11:50:33.188Z,101153.20
2022-12-08T11:53:02.024Z,101167.56
2022-12-08T11:55:43.935Z,101175.02
2022-12-08T11:58:53.582Z,101190.13
2022-12-08T12:01:26.855Z,101195.76
2022-12-08T12:03:54.908Z,101200.93
2022-12-08T12:06:46.499Z,101204.54
2022-12-08T12:09:28.494Z,101205.33
2022-12-08T12:12:19.438Z,101206.17
2022-12-08T12:15:26.564Z,101197.68
2022-12-08T12:18:11.921Z,101191.16
2022-12-08T12:20:53.583Z,101204.15
2022-12-08T12:23:29.186Z,101209.32
2022-12-08T12:26:01.003Z,101210.16
2022-12-08T12:28:52.489Z,101212.07
2022-12-08T12:31:25.209Z,101212.86
2022-12-08T12:33:57.993Z,101209.40
2022-12-08T12:36:26.603Z,101199.53
2022-12-08T12:39:01.548Z,101196.54
2022-12-08T12:41:48.958Z,101201.27
2022-12-08T12:44:22.864Z,101204.29
2022-12-08T12:46:50.997Z,101204.91
2022-12-08T12:49:40.944Z,101205.42
2022-12-08T12:52:24.238Z,101207.02
2022-12-08T12:54:52.351Z,101206.35
2022-12-08T12:57:20.469Z,101201.71
2022-12-08T13:00:08.428Z,101196.80
2022-12-08T13:02:36.806Z,101199.86
2022-12-08T13:05:21.245Z,101201.81
2022-12-08T13:08:17.158Z,101197.33
2022-12-08T13:10:57.888Z,101194.37
2022-12-08T13:13:26.161Z,101192.42
2022-12-08T13:16:15.433Z,101195.70
2022-12-08T13:18:53.115Z,101193.73
2022-12-08T13:21:23.517Z,101195.76
2022-12-08T13:24:10.494Z,101196.52
2022-12-08T13:26:48.668Z,101196.02
2022-12-08T13:29:25.679Z,101193.73
2022-12-08T13:31:55.495Z,101193.16
2022-12-08T13:34:41.470Z,101186.27
2022-12-08T13:37:15.765Z,101184.37
2022-12-08T13:39:49.698Z,101182.65
2022-12-08T13:42:36.664Z,101184.81
2022-12-08T13:48:39.231Z,101193.19
2022-12-08T13:57:11.612Z,101186.91
2022-12-08T13:59:44.979Z,101191.98
2022-12-08T14:02:25.380Z,101194.00
2022-12-08T14:07:44.355Z,101188.13
2022-12-08T14:10:39.019Z,101187.52
2022-12-08T14:13:11.777Z,101190.52
2022-12-08T14:15:40.841Z,101190.83
2022-12-08T14:18:24.973Z,101188.70
2022-12-08T14:21:21.245Z,101190.53
2022-12-08T14:23:49.869Z,101197.72
2022-12-08T14:26:18.238Z,101201.30
2022-12-08T14:28:46.551Z,101201.47
2022-12-08T14:31:15.111Z,101198.15
2022-12-08T14:33:43.453Z,101197.70
2022-12-08T14:36:14.859Z,101189.11
2022-12-08T14:38:43.136Z,101190.13
2022-12-08T14:41:12.398Z,101192.46
2022-12-08T14:43:43.502Z,101193.73
2022-12-08T14:46:22.501Z,101193.77
2022-12-08T14:48:50.851Z,101186.57
2022-12-08T14:51:19.012Z,101183.27
2022-12-08T14:53:55.948Z,101183.55
2022-12-08T14:56:39.171Z,101184.82
2022-12-08T14:59:19.414Z,101184.73
2022-12-08T15:01:50.318Z,101189.27
2022-12-08T15:04:21.063Z,101188.62
2022-12-08T15:07:03.138Z,101194.54
2022-12-08T15:09:41.191Z,101198.70
2022-12-08T15:12:12.355Z,101200.48
2022-12-08T15:15:09.781Z,101204.25
2022-12-08T15:17:40.988Z,101202.39
2022-12-08T15:20:48.666Z,101200.72
2022-12-08T15:23:28.801Z,101202.84
2022-12-08T15:25:57.844Z,101207.38
2022-12-08T15:28:30.252Z,101209.13
2022-12-08T15:30:59.227Z,101210.71
2022-12-08T15:33:27.444Z,101208.88
2022-12-08T15:35:55.603Z,101207.04
2022-12-08T15:38:31.676Z,101207.77
2022-12-08T15:41:00.625Z,101210.14
2022-12-08T15:43:29.934Z,101215.44
2022-12-08T15:46:00.126Z,101217.16
2022-12-08T15:48:30.561Z,101212.77
2022-12-08T15:50:59.512Z,101211.04
2022-12-08T15:53:27.915Z,101206.39
2022-12-08T15:58:53.713Z,101211.58
2022-12-08T16:01:22.970Z,101205.28
2022-12-08T16:09:41.061Z,101216.84
2022-12-08T16:13:26.907Z,101209.02
2022-12-08T16:15:50.128Z,101201.17
2022-12-08T16:18:23.361Z,101201.37
2022-12-08T16:21:10.289Z,101196.14
2022-12-08T16:23:43.617Z,101202.69
2022-12-08T16:26:39.439Z,101207.54
2022-12-08T16:29:06.267Z,101212.11
2022-12-08T16:31:34.899Z,101210.50
2022-12-08T16:34:03.164Z,101208.37
2022-12-08T16:36:31.363Z,101208.39
2022-12-08T16:38:59.563Z,101207.52
2022-12-08T16:41:46.455Z,101208.20
2022-12-08T16:44:14.705Z,101208.88
2022-12-08T16:46:42.950Z,101205.27
2022-12-08T16:49:11.240Z,101203.34
2022-12-08T16:51:42.657Z,101201.93
2022-12-08T16:54:11.100Z,101199.68
2022-12-08T16:56:39.320Z,101199.99
2022-12-08T16:59:07.488Z,101201.29
2022-12-08T17:01:36.639Z,101198.77
2022-12-08T17:04:30.461Z,101194.98
2022-12-08T17:06:53.383Z,101188.56
2022-12-08T17:09:21.619Z,101188.16
2022-12-08T17:11:49.819Z,101192.48
2022-12-08T17:14:18.347Z,101185.45
2022-12-08T17:16:46.624Z,101181.52
2022-12-08T17:19:15.752Z,101182.77
2022-12-08T17:21:44.851Z,101190.08
2022-12-08T17:24:15.971Z,101192.25
2022-12-08T17:26:48.572Z,101190.80
2022-12-08T17:29:18.880Z,101163.25
2022-12-08T17:31:47.140Z,101169.12
2022-12-08T17:34:15.329Z,101170.10
2022-12-08T17:36:43.562Z,101165.60
2022-12-08T17:39:18.052Z,101190.15
2022-12-08T17:41:47.997Z,101168.39
2022-12-08T17:44:18.275Z,101162.59
2022-12-08T17:46:52.463Z,101164.70
2022-12-08T17:49:24.497Z,101161.73
2022-12-08T17:51:54.949Z,101159.27
2022-12-08T17:54:23.159Z,101159.03
2022-12-08T17:56:51.982Z,101176.47
2022-12-08T17:59:20.474Z,101176.88
2022-12-08T18:01:48.671Z,101180.34
2022-12-08T18:04:16.958Z,101183.02
2022-12-08T18:06:45.221Z,101187.28
2022-12-08T18:09:13.661Z,101188.36
2022-12-08T18:11:42.486Z,101197.27
2022-12-08T18:14:11.471Z,101197.36
2022-12-08T18:16:42.678Z,101191.83
2022-12-08T18:19:12.127Z,101190.42
2022-12-08T18:21:41.143Z,101186.33
2022-12-08T18:24:17.246Z,101184.05
2022-12-08T18:26:45.882Z,101183.44
2022-12-08T18:29:14.080Z,101177.46
2022-12-08T18:31:42.250Z,101173.43
2022-12-08T18:34:10.428Z,101168.50
2022-12-08T18:36:38.737Z,101166.57
2022-12-08T18:39:10.808Z,101170.70
2022-12-08T18:41:39.314Z,101167.19
2022-12-08T18:44:07.647Z,101168.64
2022-12-08T18:46:35.818Z,101172.02
2022-12-08T18:49:03.986Z,101174.42
2022-12-08T18:51:32.249Z,101177.02
2022-12-08T18:54:00.548Z,101180.13
2022-12-08T18:56:30.594Z,101180.12
2022-12-08T18:59:03.557Z,101181.02
2022-12-08T19:01:34.062Z,101179.70
2022-12-08T19:04:27.432Z,101182.54
2022-12-08T19:06:53.863Z,101180.91
2022-12-08T19:09:22.895Z,101176.48
2022-12-08T19:11:51.031Z,101164.34
2022-12-08T19:14:22.717Z,101164.23
2022-12-08T19:16:55.631Z,101166.17
2022-12-08T19:19:24.777Z,101161.02
2022-12-08T19:21:53.016Z,101152.64
2022-12-08T19:24:21.263Z,101150.12
2022-12-08T19:26:49.642Z,101151.01
2022-12-08T19:29:17.938Z,101147.45
2022-12-08T19:31:46.381Z,101143.78
2022-12-08T19:34:15.246Z,101143.62
2022-12-08T19:36:43.516Z,101145.73
2022-12-08T19:39:34.392Z,101144.14
2022-12-08T19:42:21.488Z,101145.18
2022-12-08T19:44:55.595Z,101146.33
2022-12-08T19:47:25.340Z,101148.46
2022-12-08T19:49:55.229Z,101141.75
2022-12-08T19:52:23.462Z,101140.27
2022-12-08T19:54:51.794Z,101138.73
2022-12-08T19:57:20.642Z,101136.92
2022-12-08T19:59:54.657Z,101136.61
2022-12-08T20:02:24.611Z,101140.53
2022-12-08T20:04:53.043Z,101148.99
2022-12-08T20:07:21.276Z,101147.29
2022-12-08T20:09:49.414Z,101140.29
2022-12-08T20:12:17.606Z,101135.20
2022-12-08T20:14:46.351Z,101138.55
2022-12-08T20:17:14.887Z,101140.52
2022-12-08T20:19:43.117Z,101137.04
2022-12-08T20:22:11.273Z,101132.11
2022-12-08T20:24:39.472Z,101132.06
